sensor_id;sensor_type;location;lat;lon;timestamp;noise_LAeq;noise_LA_min;noise_LA_max;noise_LA01;noise_LA95
68599;Laerm;18038;50.166;18.908;2023-06-22T00:00:40;52.74;47.86;68.40;;
68599;Laerm;18038;50.166;18.908;2023-06-22T00:03:47;50.25;47.79;65.17;;
68599;Laerm;18038;50.166;18.908;2023-06-22T00:06:55;52.22;47.98;64.58;;
68599;Laerm;18038;50.166;18.908;2023-06-22T00:10:08;49.66;47.97;57.76;;
68599;Laerm;18038;50.166;18.908;2023-06-22T00:13:17;53.77;47.77;71.42;;
68599;Laerm;18038;50.166;18.908;2023-06-22T00:16:26;53.62;47.94;71.18;;
68599;Laerm;18038;50.166;18.908;2023-06-22T00:19:33;53.12;48.33;70.43;;
68599;Laerm;18038;50.166;18.908;2023-06-22T00:22:43;52.86;47.92;69.92;;
68599;Laerm;18038;50.166;18.908;2023-06-22T00:25:52;48.84;47.88;51.79;;
68599;Laerm;18038;50.166;18.908;2023-06-22T00:28:58;53.17;48.11;68.59;;
68599;Laerm;18038;50.166;18.908;2023-06-22T00:32:09;59.28;48.20;80.14;;
68599;Laerm;18038;50.166;18.908;2023-06-22T00:35:15;53.37;48.17;72.97;;
68599;Laerm;18038;50.166;18.908;2023-06-22T00:38:22;49.58;48.03;56.03;;
68599;Laerm;18038;50.166;18.908;2023-06-22T00:41:29;52.65;48.08;65.26;;
68599;Laerm;18038;50.166;18.908;2023-06-22T00:44:37;50.78;48.08;58.40;;
68599;Laerm;18038;50.166;18.908;2023-06-22T00:47:46;49.64;48.19;54.50;;
68599;Laerm;18038;50.166;18.908;2023-06-22T00:50:53;49.35;48.21;52.95;;
68599;Laerm;18038;50.166;18.908;2023-06-22T00:54:00;53.24;48.20;71.42;;
68599;Laerm;18038;50.166;18.908;2023-06-22T00:57:10;54.46;48.23;73.26;;
68599;Laerm;18038;50.166;18.908;2023-06-22T01:00:19;53.07;48.22;70.38;;
68599;Laerm;18038;50.166;18.908;2023-06-22T01:06:38;51.47;48.44;70.59;;
68599;Laerm;18038;50.166;18.908;2023-06-22T01:09:59;50.62;48.32;61.54;;
68599;Laerm;18038;50.166;18.908;2023-06-22T01:13:21;49.68;48.39;55.51;;
68599;Laerm;18038;50.166;18.908;2023-06-22T01:16:38;53.50;48.12;67.94;;
68599;Laerm;18038;50.166;18.908;2023-06-22T01:19:50;51.78;48.32;65.00;;
68599;Laerm;18038;50.166;18.908;2023-06-22T01:23:11;54.58;48.23;68.16;;
68599;Laerm;18038;50.166;18.908;2023-06-22T01:26:38;54.19;48.50;68.83;;
68599;Laerm;18038;50.166;18.908;2023-06-22T01:29:57;58.19;48.51;70.70;;
68599;Laerm;18038;50.166;18.908;2023-06-22T01:33:08;58.37;48.57;73.64;;
68599;Laerm;18038;50.166;18.908;2023-06-22T01:36:19;58.83;48.62;71.71;;
68599;Laerm;18038;50.166;18.908;2023-06-22T01:39:27;58.83;48.51;71.86;;
68599;Laerm;18038;50.166;18.908;2023-06-22T01:42:36;60.30;48.35;73.32;;
68599;Laerm;18038;50.166;18.908;2023-06-22T01:45:47;61.39;48.47;74.22;;
68599;Laerm;18038;50.166;18.908;2023-06-22T01:48:56;56.45;48.99;69.39;;
68599;Laerm;18038;50.166;18.908;2023-06-22T01:52:04;61.11;48.44;80.80;;
68599;Laerm;18038;50.166;18.908;2023-06-22T01:55:11;52.91;48.50;65.79;;
68599;Laerm;18038;50.166;18.908;2023-06-22T01:58:23;53.19;48.63;67.54;;
68599;Laerm;18038;50.166;18.908;2023-06-22T02:01:44;50.87;48.55;58.11;;
68599;Laerm;18038;50.166;18.908;2023-06-22T02:05:06;52.88;48.26;64.39;;
68599;Laerm;18038;50.166;18.908;2023-06-22T02:08:20;53.14;48.67;63.54;;
68599;Laerm;18038;50.166;18.908;2023-06-22T02:11:30;54.48;48.60;68.58;;
68599;Laerm;18038;50.166;18.908;2023-06-22T02:14:40;54.48;48.43;67.61;;
68599;Laerm;18038;50.166;18.908;2023-06-22T02:17:49;56.76;49.27;75.56;;
68599;Laerm;18038;50.166;18.908;2023-06-22T02:20:58;56.74;49.33;69.01;;
68599;Laerm;18038;50.166;18.908;2023-06-22T02:24:05;50.66;48.62;55.60;;
68599;Laerm;18038;50.166;18.908;2023-06-22T02:27:12;56.65;48.91;68.40;;
68599;Laerm;18038;50.166;18.908;2023-06-22T02:30:18;54.81;49.17;71.03;;
68599;Laerm;18038;50.166;18.908;2023-06-22T02:33:28;57.04;49.19;68.13;;
68599;Laerm;18038;50.166;18.908;2023-06-22T02:36:34;54.91;49.73;67.32;;
68599;Laerm;18038;50.166;18.908;2023-06-22T02:39:42;52.83;48.92;67.14;;
68599;Laerm;18038;50.166;18.908;2023-06-22T02:42:49;54.10;49.64;73.04;;
68599;Laerm;18038;50.166;18.908;2023-06-22T02:45:56;58.39;49.96;70.50;;
68599;Laerm;18038;50.166;18.908;2023-06-22T02:49:05;57.41;49.91;67.20;;
68599;Laerm;18038;50.166;18.908;2023-06-22T02:52:12;58.55;50.23;69.14;;
68599;Laerm;18038;50.166;18.908;2023-06-22T02:55:19;58.96;50.04;72.68;;
68599;Laerm;18038;50.166;18.908;2023-06-22T02:58:32;62.44;50.74;77.67;;
68599;Laerm;18038;50.166;18.908;2023-06-22T03:01:45;60.26;50.80;75.80;;
68599;Laerm;18038;50.166;18.908;2023-06-22T03:05:03;59.48;50.31;72.83;;
68599;Laerm;18038;50.166;18.908;2023-06-22T03:08:09;58.88;50.01;69.69;;
68599;Laerm;18038;50.166;18.908;2023-06-22T03:11:16;59.70;50.35;77.55;;
68599;Laerm;18038;50.166;18.908;2023-06-22T03:14:22;59.72;51.50;70.94;;
68599;Laerm;18038;50.166;18.908;2023-06-22T03:17:30;58.64;51.15;68.61;;
68599;Laerm;18038;50.166;18.908;2023-06-22T03:20:39;59.78;50.93;70.18;;
68599;Laerm;18038;50.166;18.908;2023-06-22T03:23:46;59.46;51.18;69.32;;
68599;Laerm;18038;50.166;18.908;2023-06-22T03:26:52;60.16;51.47;69.55;;
68599;Laerm;18038;50.166;18.908;2023-06-22T03:29:59;60.65;51.47;69.03;;
68599;Laerm;18038;50.166;18.908;2023-06-22T03:33:06;62.63;52.04;72.04;;
68599;Laerm;18038;50.166;18.908;2023-06-22T03:36:17;59.69;52.15;70.72;;
68599;Laerm;18038;50.166;18.908;2023-06-22T03:39:25;63.44;54.02;75.50;;
68599;Laerm;18038;50.166;18.908;2023-06-22T03:42:34;63.58;53.15;85.26;;
68599;Laerm;18038;50.166;18.908;2023-06-22T03:45:41;61.75;52.00;70.92;;
68599;Laerm;18038;50.166;18.908;2023-06-22T03:48:49;59.00;51.94;69.76;;
68599;Laerm;18038;50.166;18.908;2023-06-22T03:51:59;60.57;51.90;70.93;;
68599;Laerm;18038;50.166;18.908;2023-06-22T03:55:08;63.46;52.45;72.47;;
68599;Laerm;18038;50.166;18.908;2023-06-22T03:58:15;59.40;51.58;69.69;;
68599;Laerm;18038;50.166;18.908;2023-06-22T04:01:23;61.18;51.53;72.43;;
68599;Laerm;18038;50.166;18.908;2023-06-22T04:04:29;62.31;51.80;72.37;;
68599;Laerm;18038;50.166;18.908;2023-06-22T04:07:40;59.45;51.53;79.22;;
68599;Laerm;18038;50.166;18.908;2023-06-22T04:10:46;60.73;51.91;70.56;;
68599;Laerm;18038;50.166;18.908;2023-06-22T04:13:53;60.91;51.80;70.57;;
68599;Laerm;18038;50.166;18.908;2023-06-22T04:17:01;60.42;52.15;73.02;;
68599;Laerm;18038;50.166;18.908;2023-06-22T04:20:09;61.02;52.15;71.10;;
68599;Laerm;18038;50.166;18.908;2023-06-22T04:23:18;61.21;51.96;69.62;;
68599;Laerm;18038;50.166;18.908;2023-06-22T04:26:25;59.78;51.62;68.87;;
68599;Laerm;18038;50.166;18.908;2023-06-22T04:29:31;64.09;52.50;75.24;;
68599;Laerm;18038;50.166;18.908;2023-06-22T04:32:38;61.57;52.54;72.28;;
68599;Laerm;18038;50.166;18.908;2023-06-22T04:35:46;63.34;52.09;77.47;;
68599;Laerm;18038;50.166;18.908;2023-06-22T04:38:55;61.60;52.24;72.04;;
68599;Laerm;18038;50.166;18.908;2023-06-22T04:42:02;62.22;53.68;71.10;;
68599;Laerm;18038;50.166;18.908;2023-06-22T04:45:10;63.25;54.27;71.38;;
68599;Laerm;18038;50.166;18.908;2023-06-22T04:48:16;62.54;53.14;71.34;;
68599;Laerm;18038;50.166;18.908;2023-06-22T04:51:23;62.59;52.24;70.52;;
68599;Laerm;18038;50.166;18.908;2023-06-22T04:54:39;62.82;53.10;70.41;;
68599;Laerm;18038;50.166;18.908;2023-06-22T04:57:52;63.04;53.67;70.72;;
68599;Laerm;18038;50.166;18.908;2023-06-22T05:00:58;62.39;51.70;69.93;;
68599;Laerm;18038;50.166;18.908;2023-06-22T05:04:07;61.96;52.45;72.42;;
68599;Laerm;18038;50.166;18.908;2023-06-22T05:07:14;62.46;52.42;70.00;;
68599;Laerm;18038;50.166;18.908;2023-06-22T05:10:23;64.28;52.67;83.32;;
68599;Laerm;18038;50.166;18.908;2023-06-22T05:13:30;62.18;53.51;72.01;;
68599;Laerm;18038;50.166;18.908;2023-06-22T05:16:38;62.73;52.22;70.74;;
68599;Laerm;18038;50.166;18.908;2023-06-22T05:19:46;63.94;57.26;72.62;;
68599;Laerm;18038;50.166;18.908;2023-06-22T05:22:54;63.89;52.86;76.92;;
68599;Laerm;18038;50.166;18.908;2023-06-22T05:26:03;64.89;56.21;72.67;;
68599;Laerm;18038;50.166;18.908;2023-06-22T05:29:13;63.62;52.47;69.87;;
68599;Laerm;18038;50.166;18.908;2023-06-22T05:32:19;63.52;56.40;69.15;;
68599;Laerm;18038;50.166;18.908;2023-06-22T05:35:26;63.43;53.54;73.46;;
68599;Laerm;18038;50.166;18.908;2023-06-22T05:38:33;63.51;52.60;81.21;;
68599;Laerm;18038;50.166;18.908;2023-06-22T05:41:44;64.22;55.53;81.03;;
68599;Laerm;18038;50.166;18.908;2023-06-22T05:44:51;64.01;56.79;70.44;;
68599;Laerm;18038;50.166;18.908;2023-06-22T05:47:58;64.48;55.85;79.75;;
68599;Laerm;18038;50.166;18.908;2023-06-22T05:51:04;62.97;54.49;72.47;;
68599;Laerm;18038;50.166;18.908;2023-06-22T05:54:11;62.75;54.04;77.52;;
68599;Laerm;18038;50.166;18.908;2023-06-22T05:57:23;63.09;54.21;70.11;;
68599;Laerm;18038;50.166;18.908;2023-06-22T06:00:31;64.31;55.94;72.70;;
68599;Laerm;18038;50.166;18.908;2023-06-22T06:03:37;63.89;52.21;72.33;;
68599;Laerm;18038;50.166;18.908;2023-06-22T06:06:46;61.99;52.22;71.14;;
68599;Laerm;18038;50.166;18.908;2023-06-22T06:09:52;64.08;54.10;82.26;;
68599;Laerm;18038;50.166;18.908;2023-06-22T06:13:02;62.96;53.26;73.22;;
68599;Laerm;18038;50.166;18.908;2023-06-22T06:16:08;62.77;52.50;69.31;;
68599;Laerm;18038;50.166;18.908;2023-06-22T06:19:16;62.48;52.27;69.16;;
68599;Laerm;18038;50.166;18.908;2023-06-22T06:22:22;62.40;51.92;75.73;;
68599;Laerm;18038;50.166;18.908;2023-06-22T06:25:29;62.17;52.75;69.70;;
68599;Laerm;18038;50.166;18.908;2023-06-22T06:28:38;63.57;52.05;85.68;;
68599;Laerm;18038;50.166;18.908;2023-06-22T06:31:45;62.45;52.48;77.45;;
68599;Laerm;18038;50.166;18.908;2023-06-22T06:34:52;62.60;52.07;71.01;;
68599;Laerm;18038;50.166;18.908;2023-06-22T06:37:59;64.06;51.99;84.57;;
68599;Laerm;18038;50.166;18.908;2023-06-22T06:41:06;68.00;53.57;90.39;;
68599;Laerm;18038;50.166;18.908;2023-06-22T06:44:16;61.63;52.89;68.02;;
68599;Laerm;18038;50.166;18.908;2023-06-22T06:47:22;61.47;52.84;75.62;;
68599;Laerm;18038;50.166;18.908;2023-06-22T06:50:29;60.98;52.13;69.42;;
68599;Laerm;18038;50.166;18.908;2023-06-22T06:53:37;64.48;52.55;76.67;;
68599;Laerm;18038;50.166;18.908;2023-06-22T06:56:44;65.15;54.07;76.93;;
68599;Laerm;18038;50.166;18.908;2023-06-22T06:59:54;64.18;52.37;78.74;;
68599;Laerm;18038;50.166;18.908;2023-06-22T07:03:01;63.12;52.79;78.76;;
68599;Laerm;18038;50.166;18.908;2023-06-22T07:06:08;61.13;52.59;69.04;;
68599;Laerm;18038;50.166;18.908;2023-06-22T07:09:16;63.41;53.20;76.27;;
68599;Laerm;18038;50.166;18.908;2023-06-22T07:12:22;62.69;52.49;73.17;;
68599;Laerm;18038;50.166;18.908;2023-06-22T07:15:32;62.76;52.36;71.71;;
68599;Laerm;18038;50.166;18.908;2023-06-22T07:18:41;60.96;51.74;71.32;;
68599;Laerm;18038;50.166;18.908;2023-06-22T07:21:48;61.16;51.81;70.96;;
68599;Laerm;18038;50.166;18.908;2023-06-22T07:24:54;63.87;51.51;74.47;;
68599;Laerm;18038;50.166;18.908;2023-06-22T07:28:09;63.07;52.24;76.09;;
68599;Laerm;18038;50.166;18.908;2023-06-22T07:31:18;61.41;53.34;70.87;;
68599;Laerm;18038;50.166;18.908;2023-06-22T07:34:25;61.12;52.62;70.84;;
68599;Laerm;18038;50.166;18.908;2023-06-22T07:37:31;61.81;51.55;76.78;;
68599;Laerm;18038;50.166;18.908;2023-06-22T07:40:39;61.94;52.07;73.17;;
68599;Laerm;18038;50.166;18.908;2023-06-22T07:43:45;63.05;53.43;75.51;;
68599;Laerm;18038;50.166;18.908;2023-06-22T07:46:55;61.11;52.60;73.72;;
68599;Laerm;18038;50.166;18.908;2023-06-22T07:50:03;61.90;53.28;73.12;;
68599;Laerm;18038;50.166;18.908;2023-06-22T07:53:10;60.86;52.54;72.48;;
68599;Laerm;18038;50.166;18.908;2023-06-22T07:56:17;61.53;52.44;71.88;;
68599;Laerm;18038;50.166;18.908;2023-06-22T07:59:24;61.66;51.72;72.76;;
68599;Laerm;18038;50.166;18.908;2023-06-22T08:02:33;63.74;53.32;82.49;;
68599;Laerm;18038;50.166;18.908;2023-06-22T08:05:42;60.66;52.32;68.97;;
68599;Laerm;18038;50.166;18.908;2023-06-22T08:08:49;61.33;52.34;79.42;;
68599;Laerm;18038;50.166;18.908;2023-06-22T08:11:59;61.52;51.63;76.29;;
68599;Laerm;18038;50.166;18.908;2023-06-22T08:15:07;60.27;52.37;69.38;;
68599;Laerm;18038;50.166;18.908;2023-06-22T08:18:17;60.30;52.31;70.24;;
68599;Laerm;18038;50.166;18.908;2023-06-22T08:21:23;60.96;52.43;76.45;;
68599;Laerm;18038;50.166;18.908;2023-06-22T08:24:30;65.21;53.46;72.55;;
68599;Laerm;18038;50.166;18.908;2023-06-22T08:27:37;62.04;52.38;71.54;;
68599;Laerm;18038;50.166;18.908;2023-06-22T08:30:44;60.59;51.87;71.63;;
68599;Laerm;18038;50.166;18.908;2023-06-22T08:33:53;60.20;51.73;67.81;;
68599;Laerm;18038;50.166;18.908;2023-06-22T08:37:01;59.74;51.91;71.98;;
68599;Laerm;18038;50.166;18.908;2023-06-22T08:40:22;60.99;51.93;82.92;;
68599;Laerm;18038;50.166;18.908;2023-06-22T08:43:34;60.29;51.54;72.08;;
68599;Laerm;18038;50.166;18.908;2023-06-22T08:46:41;63.52;52.39;76.19;;
68599;Laerm;18038;50.166;18.908;2023-06-22T08:49:50;61.31;52.76;70.75;;
68599;Laerm;18038;50.166;18.908;2023-06-22T08:52:57;61.30;52.13;74.78;;
68599;Laerm;18038;50.166;18.908;2023-06-22T08:56:04;64.20;52.80;74.09;;
68599;Laerm;18038;50.166;18.908;2023-06-22T08:59:11;62.37;52.12;72.86;;
68599;Laerm;18038;50.166;18.908;2023-06-22T09:02:24;59.00;51.68;68.72;;
68599;Laerm;18038;50.166;18.908;2023-06-22T09:05:39;60.40;51.56;70.84;;
68599;Laerm;18038;50.166;18.908;2023-06-22T09:08:47;61.37;51.85;71.17;;
68599;Laerm;18038;50.166;18.908;2023-06-22T09:11:53;62.77;52.45;72.54;;
68599;Laerm;18038;50.166;18.908;2023-06-22T09:15:01;60.53;52.02;68.76;;
68599;Laerm;18038;50.166;18.908;2023-06-22T09:18:10;62.02;52.79;75.71;;
68599;Laerm;18038;50.166;18.908;2023-06-22T09:21:20;62.46;52.06;76.84;;
68599;Laerm;18038;50.166;18.908;2023-06-22T09:24:27;61.97;51.73;70.31;;
68599;Laerm;18038;50.166;18.908;2023-06-22T09:27:34;61.93;50.95;72.23;;
68599;Laerm;18038;50.166;18.908;2023-06-22T09:30:42;61.09;52.37;69.49;;
68599;Laerm;18038;50.166;18.908;2023-06-22T09:33:49;62.67;52.10;76.57;;
68599;Laerm;18038;50.166;18.908;2023-06-22T09:36:58;61.34;52.10;78.55;;
68599;Laerm;18038;50.166;18.908;2023-06-22T09:40:08;62.91;51.28;76.98;;
68599;Laerm;18038;50.166;18.908;2023-06-22T09:43:16;59.18;52.21;69.76;;
68599;Laerm;18038;50.166;18.908;2023-06-22T09:46:23;61.94;51.94;73.86;;
68599;Laerm;18038;50.166;18.908;2023-06-22T09:49:31;60.85;51.92;70.98;;
68599;Laerm;18038;50.166;18.908;2023-06-22T09:52:53;61.10;51.96;70.08;;
68599;Laerm;18038;50.166;18.908;2023-06-22T09:56:00;61.22;52.25;69.65;;
68599;Laerm;18038;50.166;18.908;2023-06-22T09:59:08;62.18;52.36;73.07;;
68599;Laerm;18038;50.166;18.908;2023-06-22T10:02:20;62.67;53.16;69.29;;
68599;Laerm;18038;50.166;18.908;2023-06-22T10:05:28;64.20;55.49;80.29;;
68599;Laerm;18038;50.166;18.908;2023-06-22T10:08:38;61.38;52.99;68.80;;
68599;Laerm;18038;50.166;18.908;2023-06-22T10:11:46;61.99;52.60;75.25;;
68599;Laerm;18038;50.166;18.908;2023-06-22T10:14:52;62.46;52.29;72.32;;
68599;Laerm;18038;50.166;18.908;2023-06-22T10:18:00;62.64;52.65;71.90;;
68599;Laerm;18038;50.166;18.908;2023-06-22T10:21:10;62.29;51.43;75.98;;
68599;Laerm;18038;50.166;18.908;2023-06-22T10:24:20;61.34;50.89;71.55;;
68599;Laerm;18038;50.166;18.908;2023-06-22T10:27:26;61.94;50.90;77.05;;
68599;Laerm;18038;50.166;18.908;2023-06-22T10:30:33;61.77;53.02;69.90;;
68599;Laerm;18038;50.166;18.908;2023-06-22T10:33:40;61.23;51.46;70.72;;
68599;Laerm;18038;50.166;18.908;2023-06-22T10:36:48;62.45;52.18;74.02;;
68599;Laerm;18038;50.166;18.908;2023-06-22T10:39:57;61.37;51.35;76.88;;
68599;Laerm;18038;50.166;18.908;2023-06-22T10:43:04;59.42;52.13;72.05;;
68599;Laerm;18038;50.166;18.908;2023-06-22T10:46:10;59.54;52.15;66.41;;
68599;Laerm;18038;50.166;18.908;2023-06-22T10:49:17;60.12;51.42;68.24;;
68599;Laerm;18038;50.166;18.908;2023-06-22T10:52:24;59.67;51.56;66.66;;
68599;Laerm;18038;50.166;18.908;2023-06-22T10:55:33;62.65;51.75;76.12;;
68599;Laerm;18038;50.166;18.908;2023-06-22T10:58:58;63.26;50.58;75.75;;
68599;Laerm;18038;50.166;18.908;2023-06-22T11:02:06;61.31;51.45;70.10;;
68599;Laerm;18038;50.166;18.908;2023-06-22T11:05:12;59.96;51.23;68.04;;
68599;Laerm;18038;50.166;18.908;2023-06-22T11:08:19;60.89;52.06;73.58;;
68599;Laerm;18038;50.166;18.908;2023-06-22T11:11:28;61.38;52.15;70.50;;
68599;Laerm;18038;50.166;18.908;2023-06-22T11:14:35;62.27;52.66;70.27;;
68599;Laerm;18038;50.166;18.908;2023-06-22T11:17:41;61.94;51.49;71.56;;
68599;Laerm;18038;50.166;18.908;2023-06-22T11:20:49;61.86;52.20;72.74;;
68599;Laerm;18038;50.166;18.908;2023-06-22T11:23:56;62.26;50.83;72.95;;
68599;Laerm;18038;50.166;18.908;2023-06-22T11:27:06;62.29;52.58;75.11;;
68599;Laerm;18038;50.166;18.908;2023-06-22T11:30:13;61.74;52.29;69.29;;
68599;Laerm;18038;50.166;18.908;2023-06-22T11:33:20;61.02;51.79;71.42;;
68599;Laerm;18038;50.166;18.908;2023-06-22T11:36:27;62.23;51.95;69.57;;
68599;Laerm;18038;50.166;18.908;2023-06-22T11:39:37;61.65;53.22;68.07;;
68599;Laerm;18038;50.166;18.908;2023-06-22T11:42:57;61.56;52.96;72.57;;
68599;Laerm;18038;50.166;18.908;2023-06-22T11:46:05;62.29;53.67;74.09;;
68599;Laerm;18038;50.166;18.908;2023-06-22T11:49:11;60.29;52.14;68.83;;
68599;Laerm;18038;50.166;18.908;2023-06-22T11:52:18;58.94;51.51;67.25;;
68599;Laerm;18038;50.166;18.908;2023-06-22T11:55:25;61.29;52.35;69.03;;
68599;Laerm;18038;50.166;18.908;2023-06-22T11:58:35;61.60;50.98;77.23;;
68599;Laerm;18038;50.166;18.908;2023-06-22T12:01:41;60.97;51.75;69.76;;
68599;Laerm;18038;50.166;18.908;2023-06-22T12:04:48;60.65;52.33;74.38;;
68599;Laerm;18038;50.166;18.908;2023-06-22T12:07:56;61.96;50.93;73.37;;
68599;Laerm;18038;50.166;18.908;2023-06-22T12:11:03;63.79;51.71;74.03;;
68599;Laerm;18038;50.166;18.908;2023-06-22T12:14:12;61.94;51.93;73.72;;
68599;Laerm;18038;50.166;18.908;2023-06-22T12:17:19;62.05;52.27;69.87;;
68599;Laerm;18038;50.166;18.908;2023-06-22T12:20:25;62.99;54.00;75.60;;
68599;Laerm;18038;50.166;18.908;2023-06-22T12:23:33;61.51;52.55;70.33;;
68599;Laerm;18038;50.166;18.908;2023-06-22T12:26:39;63.70;52.52;74.83;;
68599;Laerm;18038;50.166;18.908;2023-06-22T12:29:49;62.56;52.36;71.34;;
68599;Laerm;18038;50.166;18.908;2023-06-22T12:32:55;61.60;53.25;70.66;;
68599;Laerm;18038;50.166;18.908;2023-06-22T12:36:03;64.10;52.58;80.73;;
68599;Laerm;18038;50.166;18.908;2023-06-22T12:39:10;63.21;53.29;74.00;;
68599;Laerm;18038;50.166;18.908;2023-06-22T12:42:17;61.59;52.63;73.22;;
68599;Laerm;18038;50.166;18.908;2023-06-22T12:45:27;64.24;53.53;80.48;;
68599;Laerm;18038;50.166;18.908;2023-06-22T12:48:37;63.13;55.10;73.62;;
68599;Laerm;18038;50.166;18.908;2023-06-22T12:51:45;62.23;53.97;68.49;;
68599;Laerm;18038;50.166;18.908;2023-06-22T12:54:53;61.96;55.27;69.36;;
68599;Laerm;18038;50.166;18.908;2023-06-22T12:57:59;62.32;54.38;70.57;;
68599;Laerm;18038;50.166;18.908;2023-06-22T13:01:09;64.29;52.57;77.85;;
68599;Laerm;18038;50.166;18.908;2023-06-22T13:04:15;63.97;52.10;89.18;;
68599;Laerm;18038;50.166;18.908;2023-06-22T13:07:23;63.58;53.08;75.77;;
68599;Laerm;18038;50.166;18.908;2023-06-22T13:10:29;62.39;53.83;68.69;;
68599;Laerm;18038;50.166;18.908;2023-06-22T13:13:36;62.08;52.81;72.09;;
68599;Laerm;18038;50.166;18.908;2023-06-22T13:16:45;62.53;53.09;71.19;;
68599;Laerm;18038;50.166;18.908;2023-06-22T13:19:52;63.75;54.37;79.77;;
68599;Laerm;18038;50.166;18.908;2023-06-22T13:22:58;63.30;52.54;75.56;;
68599;Laerm;18038;50.166;18.908;2023-06-22T13:26:07;64.62;54.27;83.87;;
68599;Laerm;18038;50.166;18.908;2023-06-22T13:29:13;64.46;53.64;82.71;;
68599;Laerm;18038;50.166;18.908;2023-06-22T13:32:23;63.50;55.05;72.47;;
68599;Laerm;18038;50.166;18.908;2023-06-22T13:35:29;62.99;54.11;71.96;;
68599;Laerm;18038;50.166;18.908;2023-06-22T13:38:36;61.85;54.74;71.68;;
68599;Laerm;18038;50.166;18.908;2023-06-22T13:41:44;62.55;53.08;73.29;;
68599;Laerm;18038;50.166;18.908;2023-06-22T13:44:51;62.41;52.33;69.63;;
68599;Laerm;18038;50.166;18.908;2023-06-22T13:48:00;62.30;52.01;70.38;;
68599;Laerm;18038;50.166;18.908;2023-06-22T13:51:07;61.49;52.36;70.11;;
68599;Laerm;18038;50.166;18.908;2023-06-22T13:54:13;61.74;52.69;74.07;;
68599;Laerm;18038;50.166;18.908;2023-06-22T13:57:32;62.25;53.20;72.94;;
68599;Laerm;18038;50.166;18.908;2023-06-22T14:00:38;63.08;55.10;78.93;;
68599;Laerm;18038;50.166;18.908;2023-06-22T14:03:48;62.39;56.18;70.89;;
68599;Laerm;18038;50.166;18.908;2023-06-22T14:06:55;64.48;56.03;75.75;;
68599;Laerm;18038;50.166;18.908;2023-06-22T14:10:03;63.02;55.81;73.89;;
68599;Laerm;18038;50.166;18.908;2023-06-22T14:13:09;63.48;55.52;75.41;;
68599;Laerm;18038;50.166;18.908;2023-06-22T14:16:17;65.40;55.97;79.01;;
68599;Laerm;18038;50.166;18.908;2023-06-22T14:19:26;62.30;56.29;74.11;;
68599;Laerm;18038;50.166;18.908;2023-06-22T14:22:33;63.29;55.56;76.93;;
68599;Laerm;18038;50.166;18.908;2023-06-22T14:25:39;62.57;53.48;69.56;;
68599;Laerm;18038;50.166;18.908;2023-06-22T14:28:47;61.61;53.83;72.17;;
68599;Laerm;18038;50.166;18.908;2023-06-22T14:31:54;63.13;52.99;72.62;;
68599;Laerm;18038;50.166;18.908;2023-06-22T14:35:05;62.63;52.72;74.41;;
68599;Laerm;18038;50.166;18.908;2023-06-22T14:38:11;61.90;52.87;74.55;;
68599;Laerm;18038;50.166;18.908;2023-06-22T14:41:18;61.59;51.43;74.17;;
68599;Laerm;18038;50.166;18.908;2023-06-22T14:44:25;62.18;51.89;71.70;;
68599;Laerm;18038;50.166;18.908;2023-06-22T14:47:33;60.27;51.88;68.17;;
68599;Laerm;18038;50.166;18.908;2023-06-22T14:50:42;62.53;52.70;74.25;;
68599;Laerm;18038;50.166;18.908;2023-06-22T14:53:49;65.32;52.79;89.00;;
68599;Laerm;18038;50.166;18.908;2023-06-22T14:56:55;60.15;52.09;68.49;;
68599;Laerm;18038;50.166;18.908;2023-06-22T15:00:04;61.90;52.77;71.86;;
68599;Laerm;18038;50.166;18.908;2023-06-22T15:03:10;62.57;52.43;77.20;;
68599;Laerm;18038;50.166;18.908;2023-06-22T15:06:24;61.48;51.80;74.69;;
68599;Laerm;18038;50.166;18.908;2023-06-22T15:09:30;63.64;51.91;78.76;;
68599;Laerm;18038;50.166;18.908;2023-06-22T15:12:37;62.31;52.20;71.33;;
68599;Laerm;18038;50.166;18.908;2023-06-22T15:15:43;63.70;54.84;71.14;;
68599;Laerm;18038;50.166;18.908;2023-06-22T15:18:50;61.79;52.22;72.12;;
68599;Laerm;18038;50.166;18.908;2023-06-22T15:22:00;61.38;52.61;71.23;;
68599;Laerm;18038;50.166;18.908;2023-06-22T15:25:07;61.71;52.66;73.19;;
68599;Laerm;18038;50.166;18.908;2023-06-22T15:28:14;61.80;54.18;73.21;;
68599;Laerm;18038;50.166;18.908;2023-06-22T15:31:22;60.50;52.51;68.86;;
68599;Laerm;18038;50.166;18.908;2023-06-22T15:34:28;60.40;52.41;73.85;;
68599;Laerm;18038;50.166;18.908;2023-06-22T15:37:38;62.33;54.53;69.44;;
68599;Laerm;18038;50.166;18.908;2023-06-22T15:40:44;62.79;54.59;71.76;;
68599;Laerm;18038;50.166;18.908;2023-06-22T15:43:51;63.72;53.46;72.21;;
68599;Laerm;18038;50.166;18.908;2023-06-22T15:47:01;63.33;52.95;79.41;;
68599;Laerm;18038;50.166;18.908;2023-06-22T15:50:09;61.35;52.36;76.99;;
68599;Laerm;18038;50.166;18.908;2023-06-22T15:53:21;60.85;53.05;70.98;;
68599;Laerm;18038;50.166;18.908;2023-06-22T15:56:31;60.92;52.87;73.53;;
68599;Laerm;18038;50.166;18.908;2023-06-22T15:59:37;60.15;52.70;69.45;;
68599;Laerm;18038;50.166;18.908;2023-06-22T16:02:46;61.73;52.97;69.61;;
68599;Laerm;18038;50.166;18.908;2023-06-22T16:05:53;60.78;53.22;67.69;;
68599;Laerm;18038;50.166;18.908;2023-06-22T16:09:04;62.48;53.95;72.95;;
68599;Laerm;18038;50.166;18.908;2023-06-22T16:12:10;61.40;52.71;72.54;;
68599;Laerm;18038;50.166;18.908;2023-06-22T16:15:18;62.43;53.36;75.38;;
68599;Laerm;18038;50.166;18.908;2023-06-22T16:18:26;63.05;53.07;76.49;;
68599;Laerm;18038;50.166;18.908;2023-06-22T16:21:33;70.01;53.06;90.68;;
68599;Laerm;18038;50.166;18.908;2023-06-22T16:24:43;60.73;52.21;78.13;;
68599;Laerm;18038;50.166;18.908;2023-06-22T16:27:54;64.29;53.10;76.17;;
68599;Laerm;18038;50.166;18.908;2023-06-22T16:31:00;60.65;52.06;68.79;;
68599;Laerm;18038;50.166;18.908;2023-06-22T16:34:08;59.66;51.38;68.50;;
68599;Laerm;18038;50.166;18.908;2023-06-22T16:37:15;60.16;52.36;67.64;;
68599;Laerm;18038;50.166;18.908;2023-06-22T16:40:29;62.83;53.22;72.89;;
68599;Laerm;18038;50.166;18.908;2023-06-22T16:43:37;60.61;52.55;69.68;;
68599;Laerm;18038;50.166;18.908;2023-06-22T16:46:45;61.33;52.64;69.82;;
68599;Laerm;18038;50.166;18.908;2023-06-22T16:49:52;61.65;51.94;70.06;;
68599;Laerm;18038;50.166;18.908;2023-06-22T16:53:00;61.99;52.57;78.86;;
68599;Laerm;18038;50.166;18.908;2023-06-22T16:56:16;61.99;51.90;72.69;;
68599;Laerm;18038;50.166;18.908;2023-06-22T16:59:23;64.13;52.90;74.00;;
68599;Laerm;18038;50.166;18.908;2023-06-22T17:02:37;60.28;51.16;69.94;;
68599;Laerm;18038;50.166;18.908;2023-06-22T17:05:46;61.77;51.60;72.71;;
68599;Laerm;18038;50.166;18.908;2023-06-22T17:08:56;61.51;51.86;73.77;;
68599;Laerm;18038;50.166;18.908;2023-06-22T17:12:09;61.32;51.18;71.13;;
68599;Laerm;18038;50.166;18.908;2023-06-22T17:15:18;57.67;50.58;67.78;;
68599;Laerm;18038;50.166;18.908;2023-06-22T17:18:29;61.29;51.14;68.62;;
68599;Laerm;18038;50.166;18.908;2023-06-22T17:21:35;69.41;50.84;93.25;;